Time;durP1;ratioP1;P1;durP2;ratioP2;P2;SDS_P1;SDS_P2;PMS_P1;PMS_P2;Temp;Humidity;BMP_temperature;BMP_pressure;BME280_temperature;BME280_humidity;BME280_pressure;Samples;Min_cycle;Max_cycle;Signal;HPM_P1;HPM_P2
2020/12/27 00:00:41;;;;;;;30.60;19.35;;;102.60;2124.80;;;;;;5020103;28;20412;-79
2020/12/27 00:03:06;;;;;;;36.92;18.70;;;102.60;2124.80;;;;;;5002626;28;20117;-78
2020/12/27 00:05:34;;;;;;;30.88;19.80;;;102.60;2124.80;;;;;;5019935;28;20118;-78
2020/12/27 00:08:00;;;;;;;28.33;17.98;;;102.60;2124.80;;;;;;5019951;28;20083;-78
2020/12/27 00:10:26;;;;;;;26.98;16.45;;;102.60;2124.80;;;;;;5020024;28;20412;-78
2020/12/27 00:12:52;;;;;;;28.50;17.10;;;102.70;2124.80;;;;;;5019768;28;20029;-78
2020/12/27 00:15:17;;;;;;;29.83;16.35;;;102.60;2124.80;;;;;;5018333;28;20037;-78
2020/12/27 00:17:43;;;;;;;27.30;15.80;;;102.60;2099.20;;;;;;5019570;28;20053;-79
2020/12/27 00:20:09;;;;;;;25.92;16.33;;;102.60;2124.80;;;;;;5018653;28;20022;-78
2020/12/27 00:22:35;;;;;;;25.80;15.77;;;102.60;2099.20;;;;;;5019395;28;20088;-79
2020/12/27 00:25:01;;;;;;;27.17;15.18;;;102.60;2099.20;;;;;;5018212;28;20034;-79
2020/12/27 00:27:27;;;;;;;26.88;15.07;;;102.70;2099.20;;;;;;5001494;28;20033;-78
2020/12/27 00:29:53;;;;;;;27.73;15.77;;;102.60;2099.20;;;;;;5019504;28;20022;-79
2020/12/27 00:32:19;;;;;;;24.70;14.15;;;102.60;2099.20;;;;;;5019388;28;20412;-79
2020/12/27 00:34:44;;;;;;;24.27;15.93;;;102.60;2099.20;;;;;;5018294;28;20430;-79
2020/12/27 00:37:10;;;;;;;21.02;13.52;;;102.60;2099.20;;;;;;5019220;28;20026;-78
2020/12/27 00:39:36;;;;;;;23.73;13.85;;;102.70;2073.60;;;;;;5019686;28;20403;-77
2020/12/27 00:42:02;;;;;;;19.13;13.45;;;102.70;2099.20;;;;;;5018408;28;20420;-78
2020/12/27 00:44:29;;;;;;;23.00;12.52;;;102.70;2073.60;;;;;;5019060;28;20117;-78
2020/12/27 00:46:55;;;;;;;21.90;13.90;;;102.70;2073.60;;;;;;5019161;28;20092;-78
2020/12/27 00:49:21;;;;;;;22.13;13.68;;;102.70;2099.20;;;;;;5019087;28;20033;-77
2020/12/27 00:51:47;;;;;;;27.85;14.15;;;102.60;2073.60;;;;;;5017266;28;20436;-78
2020/12/27 00:54:13;;;;;;;22.90;12.40;;;102.70;2099.20;;;;;;5019345;28;20034;-78
2020/12/27 00:56:39;;;;;;;23.30;13.73;;;102.70;2073.60;;;;;;5017306;28;20331;-78
2020/12/27 00:59:05;;;;;;;20.17;12.52;;;102.70;2073.60;;;;;;5019274;28;20049;-79
2020/12/27 01:01:31;;;;;;;19.50;11.73;;;102.70;2073.60;;;;;;5018649;28;20061;-78
2020/12/27 01:03:57;;;;;;;19.40;12.60;;;102.60;2073.60;;;;;;5016962;28;20038;-78
2020/12/27 01:06:24;;;;;;;20.95;12.27;;;102.70;2099.20;;;;;;5018765;28;20316;-78
2020/12/27 01:08:51;;;;;;;19.40;11.95;;;102.70;2099.20;;;;;;5017554;28;20415;-78
2020/12/27 01:11:17;;;;;;;22.80;14.15;;;102.70;2073.60;;;;;;5018615;28;20118;-78
2020/12/27 01:13:42;;;;;;;22.70;13.10;;;102.60;2073.60;;;;;;5018850;28;20050;-77
2020/12/27 01:16:12;;;;;;;18.52;11.85;;;102.70;2073.60;;;;;;5018615;28;20412;-76
2020/12/27 01:18:48;;;;;;;31.95;14.70;;;102.70;2073.60;;;;;;5034023;28;20109;-77
2020/12/27 01:21:27;;;;;;;29.63;13.90;;;102.70;2073.60;;;;;;5018439;28;20045;-78
2020/12/27 01:23:53;;;;;;;42.90;16.10;;;102.70;2073.60;;;;;;5018343;28;20026;-77
2020/12/27 01:26:33;;;;;;;40.35;16.40;;;102.60;2048.00;;;;;;5017499;28;20354;-79
2020/12/27 01:28:59;;;;;;;35.53;14.80;;;102.70;2048.00;;;;;;5018581;28;20080;-78
2020/12/27 01:31:25;;;;;;;35.28;13.52;;;102.60;2048.00;;;;;;5017507;28;20025;-79
2020/12/27 01:33:52;;;;;;;45.50;15.65;;;102.60;2022.40;;;;;;5018503;28;20092;-77
2020/12/27 01:36:25;;;;;;;40.33;14.30;;;102.70;2022.40;;;;;;5018380;28;20053;-77
2020/12/27 01:38:51;;;;;;;25.77;10.88;;;102.70;2022.40;;;;;;5018341;28;20057;-77
2020/12/27 01:41:20;;;;;;;32.75;12.88;;;102.70;2022.40;;;;;;5018198;28;20412;-77
2020/12/27 01:44:01;;;;;;;42.00;15.20;;;102.70;2022.40;;;;;;5018111;28;20022;-77
2020/12/27 01:46:28;;;;;;;47.67;20.90;;;102.60;1996.80;;;;;;5017692;28;20022;-78
2020/12/27 01:48:53;;;;;;;36.92;16.80;;;102.70;1996.80;;;;;;5016718;28;20335;-78
2020/12/27 01:51:19;;;;;;;52.50;20.98;;;102.60;1996.80;;;;;;5015750;28;20030;-77
2020/12/27 01:53:45;;;;;;;35.50;17.17;;;102.60;1996.80;;;;;;5017856;28;20026;-78
2020/12/27 01:56:13;;;;;;;29.77;16.33;;;102.70;1996.80;;;;;;5017693;28;20057;-77
2020/12/27 01:58:45;;;;;;;22.25;13.85;;;102.60;1996.80;;;;;;5017678;28;20030;-77
2020/12/27 02:01:10;;;;;;;17.52;11.07;;;102.70;1996.80;;;;;;5014855;28;20026;-79
2020/12/27 02:03:36;;;;;;;17.40;10.60;;;102.60;1996.80;;;;;;5017726;28;20439;-79
2020/12/27 02:06:04;;;;;;;15.13;9.88;;;102.70;1996.80;;;;;;5017628;28;20033;-78
2020/12/27 02:08:30;;;;;;;16.23;10.55;;;102.60;2022.40;;;;;;5017671;28;20026;-79
2020/12/27 02:10:56;;;;;;;18.77;10.55;;;102.70;2022.40;;;;;;5017741;28;20038;-79
2020/12/27 02:13:22;;;;;;;15.32;9.82;;;102.60;2022.40;;;;;;5017561;28;20046;-79
2020/12/27 02:15:48;;;;;;;14.25;9.95;;;102.60;2022.40;;;;;;5016063;28;20073;-78
2020/12/27 02:18:13;;;;;;;12.73;9.57;;;102.60;2022.40;;;;;;5017629;28;20068;-78
2020/12/27 02:20:39;;;;;;;23.40;10.18;;;102.60;2022.40;;;;;;5016044;28;20029;-78
2020/12/27 02:23:08;;;;;;;13.43;9.05;;;102.60;2022.40;;;;;;5017695;28;20369;-79
2020/12/27 02:25:34;;;;;;;18.17;8.65;;;102.60;2022.40;;;;;;5016478;28;20371;-79
2020/12/27 02:28:00;;;;;;;12.57;8.90;;;102.60;1996.80;;;;;;5017376;28;20054;-77
2020/12/27 02:30:25;;;;;;;14.38;8.75;;;102.60;1996.80;;;;;;5017155;28;20033;-78
2020/12/27 02:32:51;;;;;;;11.88;8.43;;;102.60;1996.80;;;;;;5017098;28;20041;-78
2020/12/27 02:35:17;;;;;;;12.30;8.85;;;102.60;1996.80;;;;;;5017119;28;20145;-79
2020/12/27 02:37:42;;;;;;;12.95;7.95;;;102.50;1996.80;;;;;;5017100;28;20033;-78
2020/12/27 02:40:08;;;;;;;16.20;9.63;;;102.40;1996.80;;;;;;5017228;28;20022;-77
2020/12/27 02:42:34;;;;;;;16.50;10.13;;;102.40;2022.40;;;;;;5017192;28;20076;-78
2020/12/27 02:47:34;;;;;;;19.63;10.13;;;102.40;2022.40;;;;;;5017061;28;20040;-78
2020/12/27 02:49:59;;;;;;;21.77;10.73;;;102.40;2022.40;;;;;;5017075;28;20030;-79
2020/12/27 02:52:25;;;;;;;18.80;9.75;;;102.40;2022.40;;;;;;5016793;28;20400;-78
2020/12/27 02:54:51;;;;;;;15.73;9.50;;;102.40;1996.80;;;;;;5016110;28;20033;-79
2020/12/27 02:57:16;;;;;;;16.90;9.45;;;102.40;1996.80;;;;;;5016169;28;20045;-78
2020/12/27 02:59:42;;;;;;;16.05;8.60;;;102.40;1996.80;;;;;;5016945;28;20052;-78
2020/12/27 03:02:08;;;;;;;15.15;9.43;;;102.40;1996.80;;;;;;5016628;28;20065;-79
2020/12/27 03:04:34;;;;;;;16.15;9.27;;;102.40;1996.80;;;;;;5015452;28;20018;-78
2020/12/27 03:06:59;;;;;;;15.77;10.05;;;102.40;1996.80;;;;;;5016872;28;20028;-79
2020/12/27 03:09:25;;;;;;;13.73;9.43;;;102.40;1996.80;;;;;;5016870;28;20041;-78
2020/12/27 03:11:50;;;;;;;13.63;9.20;;;102.40;1996.80;;;;;;5016647;28;20315;-79
2020/12/27 03:14:16;;;;;;;17.30;9.43;;;102.40;2022.40;;;;;;5016727;28;20033;-78
2020/12/27 03:16:42;;;;;;;16.02;8.02;;;77.70;2022.40;;;;;;5016434;28;20049;-78
2020/12/27 03:19:07;;;;;;;13.38;8.35;;;77.70;2048.00;;;;;;5016584;28;20041;-78
2020/12/27 03:21:33;;;;;;;13.60;8.10;;;77.70;2048.00;;;;;;5016641;28;20029;-78
2020/12/27 03:23:59;;;;;;;17.67;9.55;;;77.60;2048.00;;;;;;5016561;28;20046;-78
2020/12/27 03:26:24;;;;;;;25.05;11.00;;;77.70;2048.00;;;;;;5016398;28;20112;-78
2020/12/27 03:28:50;;;;;;;22.33;10.05;;;77.70;2048.00;;;;;;5015147;28;20041;-78
2020/12/27 03:31:16;;;;;;;17.40;9.15;;;77.70;2048.00;;;;;;5015433;28;20026;-79
2020/12/27 03:33:42;;;;;;;15.25;8.65;;;77.70;2048.00;;;;;;5016386;28;20030;-78
2020/12/27 03:36:07;;;;;;;13.77;8.65;;;77.70;2048.00;;;;;;5016919;28;20030;-79
2020/12/27 03:38:33;;;;;;;12.65;8.55;;;77.70;2048.00;;;;;;5016253;28;20030;-78
2020/12/27 03:41:01;;;;;;;15.85;10.05;;;77.60;2048.00;;;;;;5016637;28;20036;-78
2020/12/27 03:43:27;;;;;;;18.02;10.82;;;77.60;2073.60;;;;;;5016314;28;20022;-79
2020/12/27 03:45:52;;;;;;;18.60;9.98;;;77.60;2073.60;;;;;;5016345;28;20088;-79
2020/12/27 03:48:18;;;;;;;16.70;7.68;;;77.60;2073.60;;;;;;5016660;28;20057;-80
2020/12/27 03:50:44;;;;;;;21.33;11.20;;;77.60;2073.60;;;;;;5016286;28;20289;-78
2020/12/27 03:53:09;;;;;;;22.70;11.48;;;77.60;2073.60;;;;;;5016063;28;20026;-79
2020/12/27 03:55:35;;;;;;;18.75;10.45;;;77.60;2073.60;;;;;;5016333;28;20048;-79
2020/12/27 03:58:01;;;;;;;20.33;9.27;;;77.60;2099.20;;;;;;5016268;28;20038;-79
2020/12/27 04:00:29;;;;;;;17.70;10.38;;;77.60;2099.20;;;;;;5015971;28;20045;-79
2020/12/27 04:02:55;;;;;;;27.48;12.32;;;77.60;2073.60;;;;;;5016139;28;20037;-79
2020/12/27 04:05:21;;;;;;;24.55;10.75;;;77.60;2099.20;;;;;;5016425;28;20396;-78
2020/12/27 04:07:46;;;;;;;14.68;9.63;;;77.60;2099.20;;;;;;5016222;28;20026;-79
2020/12/27 04:10:12;;;;;;;18.45;10.45;;;77.50;2099.20;;;;;;5017597;28;20418;-78
2020/12/27 04:12:38;;;;;;;17.60;9.95;;;77.50;2099.20;;;;;;5019852;28;20032;-78
2020/12/27 04:15:03;;;;;;;14.15;8.48;;;77.50;2099.20;;;;;;5019706;28;20072;-79
2020/12/27 04:17:29;;;;;;;15.10;9.45;;;77.60;2099.20;;;;;;5019669;28;20064;-78
2020/12/27 04:19:55;;;;;;;18.13;10.77;;;77.60;2099.20;;;;;;5019697;28;20417;-79
2020/12/27 04:22:20;;;;;;;21.98;13.65;;;77.60;2073.60;;;;;;5019399;28;20026;-79
2020/12/27 04:24:46;;;;;;;20.52;12.02;;;77.70;2099.20;;;;;;5019745;28;20057;-79
2020/12/27 04:27:12;;;;;;;23.63;12.85;;;77.60;2099.20;;;;;;5019602;28;20261;-78
2020/12/27 04:29:37;;;;;;;34.05;16.13;;;77.60;2099.20;;;;;;5019019;28;20021;-79
2020/12/27 04:32:03;;;;;;;31.52;15.45;;;77.60;2099.20;;;;;;5019464;28;20742;-79
2020/12/27 04:34:30;;;;;;;31.90;14.80;;;77.60;2124.80;;;;;;5019246;28;20037;-78
2020/12/27 04:36:56;;;;;;;33.40;14.45;;;77.60;2124.80;;;;;;5019663;28;20810;-79
2020/12/27 04:39:22;;;;;;;31.88;15.35;;;77.60;2124.80;;;;;;5019407;28;20057;-78
2020/12/27 04:41:47;;;;;;;23.27;12.98;;;77.60;2099.20;;;;;;5019420;28;20022;-79
2020/12/27 04:44:14;;;;;;;32.35;14.50;;;77.60;2124.80;;;;;;5019154;28;20076;-78
2020/12/27 04:46:41;;;;;;;27.77;12.82;;;77.60;2124.80;;;;;;5019224;28;20026;-79
2020/12/27 04:49:10;;;;;;;21.65;11.43;;;77.60;2124.80;;;;;;5018869;28;20326;-79
2020/12/27 04:51:36;;;;;;;20.42;11.18;;;77.50;2124.80;;;;;;5019460;28;20022;-79
2020/12/27 04:54:04;;;;;;;20.45;11.23;;;77.50;2124.80;;;;;;5019201;28;20034;-78
2020/12/27 04:56:30;;;;;;;20.83;11.68;;;77.50;2124.80;;;;;;5018830;28;20475;-79
2020/12/27 04:58:56;;;;;;;22.17;12.38;;;77.50;2150.40;;;;;;5018952;28;20109;-78
2020/12/27 05:01:23;;;;;;;22.10;12.00;;;77.50;2124.80;;;;;;5018802;28;20068;-79
2020/12/27 05:03:55;;;;;;;21.58;12.90;;;77.50;2124.80;;;;;;5018762;28;20101;-79
2020/12/27 05:06:20;;;;;;;20.55;12.82;;;77.50;2150.40;;;;;;5019016;28;20026;-78
2020/12/27 05:08:47;;;;;;;24.25;12.32;;;77.50;2150.40;;;;;;5017681;28;20072;-79
2020/12/27 05:11:17;;;;;;;20.90;11.77;;;77.40;2150.40;;;;;;5017348;28;20084;-78
2020/12/27 05:13:46;;;;;;;19.73;11.30;;;77.50;2150.40;;;;;;5018764;28;20031;-79
2020/12/27 05:16:15;;;;;;;20.77;11.23;;;77.50;2150.40;;;;;;5018649;28;20247;-77
2020/12/27 05:18:43;;;;;;;18.90;11.50;;;77.40;2176.00;;;;;;5018472;28;20407;-77
2020/12/27 05:21:10;;;;;;;19.02;11.30;;;77.40;2150.40;;;;;;5016964;28;20424;-79
2020/12/27 05:23:36;;;;;;;21.30;12.02;;;77.40;2176.00;;;;;;5018459;28;20093;-78
2020/12/27 05:26:08;;;;;;;22.90;13.00;;;77.40;2176.00;;;;;;5017431;28;20054;-78
2020/12/27 05:28:34;;;;;;;22.15;13.85;;;77.40;2176.00;;;;;;5018208;28;20436;-79
2020/12/27 05:31:12;;;;;;;17.92;12.73;;;77.50;2176.00;;;;;;5018249;28;20034;-78
2020/12/27 05:33:39;;;;;;;22.92;15.50;;;77.40;2201.60;;;;;;5018066;28;20317;-78
2020/12/27 05:36:05;;;;;;;28.67;15.30;;;77.40;2201.60;;;;;;5033837;28;20026;-77
2020/12/27 05:38:31;;;;;;;30.02;15.93;;;77.40;2201.60;;;;;;5018407;28;20030;-78
2020/12/27 05:40:57;;;;;;;29.95;18.98;;;77.40;2201.60;;;;;;5018428;28;20049;-79
2020/12/27 05:43:22;;;;;;;33.00;20.85;;;77.40;2176.00;;;;;;5018198;28;20029;-78
2020/12/27 05:45:51;;;;;;;33.47;18.33;;;77.50;2201.60;;;;;;5018027;28;20032;-78
2020/12/27 05:48:17;;;;;;;24.83;16.02;;;77.50;2201.60;;;;;;5018069;28;20319;-78
2020/12/27 05:50:43;;;;;;;22.02;12.60;;;77.50;2201.60;;;;;;5017939;28;20089;-79
2020/12/27 05:53:23;;;;;;;27.35;14.95;;;77.50;2176.00;;;;;;5017969;28;20054;-79
2020/12/27 05:55:51;;;;;;;29.88;16.95;;;77.50;2201.60;;;;;;5017668;28;20057;-80
2020/12/27 05:58:24;;;;;;;25.50;14.35;;;77.50;2201.60;;;;;;5017676;28;20032;-78
2020/12/27 06:00:54;;;;;;;29.52;15.48;;;77.50;2201.60;;;;;;5033059;28;20345;-79
2020/12/27 06:03:22;;;;;;;34.10;16.05;;;77.50;2201.60;;;;;;5017806;28;20030;-77
2020/12/27 06:06:08;;;;;;;31.02;14.60;;;77.50;2201.60;;;;;;5017931;28;20101;-77
2020/12/27 06:09:04;;;;;;;19.00;12.18;;;77.50;2201.60;;;;;;5015590;28;20040;-78
2020/12/27 06:11:53;;;;;;;20.20;13.57;;;77.60;2201.60;;;;;;4957369;29;20047;-78
2020/12/27 06:14:38;;;;;;;22.08;12.30;;;77.60;2201.60;;;;;;4957417;29;20031;-79
2020/12/27 06:17:15;;;;;;;31.20;18.35;;;77.60;2176.00;;;;;;4957306;29;20031;-77
2020/12/27 06:19:56;;;;;;;34.65;18.50;;;77.50;2201.60;;;;;;4957294;29;20031;-78
2020/12/27 06:22:30;;;;;;;30.83;16.77;;;77.50;2227.20;;;;;;4957113;29;20087;-79
2020/12/27 06:25:00;;;;;;;25.50;15.52;;;77.60;2201.60;;;;;;4957133;29;20035;-77
2020/12/27 06:27:28;;;;;;;28.73;18.38;;;77.60;2201.60;;;;;;4957075;29;20054;-77
2020/12/27 06:30:21;;;;;;;40.13;25.13;;;77.60;2201.60;;;;;;4957177;29;20023;-78
2020/12/27 06:33:01;;;;;;;57.33;32.33;;;77.60;2201.60;;;;;;4861942;29;20045;-77
2020/12/27 06:35:32;;;;;;;50.97;30.48;;;77.60;2201.60;;;;;;4862676;29;20057;-78
2020/12/27 06:37:58;;;;;;;35.40;22.98;;;77.60;2201.60;;;;;;4862667;29;20037;-77
2020/12/27 06:40:25;;;;;;;26.13;17.58;;;77.60;2201.60;;;;;;4862643;29;20359;-77
2020/12/27 06:43:10;;;;;;;19.23;14.60;;;77.60;2201.60;;;;;;4851712;29;20443;-78
2020/12/27 06:45:36;;;;;;;22.33;13.25;;;77.60;2201.60;;;;;;4844160;29;20421;-78
2020/12/27 06:48:02;;;;;;;22.73;14.68;;;77.60;2227.20;;;;;;4897451;29;20338;-78
2020/12/27 06:50:28;;;;;;;29.40;17.20;;;77.70;2227.20;;;;;;4937618;29;20127;-78
2020/12/27 06:52:53;;;;;;;31.70;19.80;;;77.70;2227.20;;;;;;4921438;29;20123;-78
2020/12/27 06:55:32;;;;;;;32.30;18.23;;;77.70;2227.20;;;;;;4937486;29;20040;-78
2020/12/27 06:58:21;;;;;;;92.15;43.97;;;77.70;2227.20;;;;;;4937300;29;20327;-79
2020/12/27 07:00:48;;;;;;;99.50;43.90;;;77.70;2227.20;;;;;;4937569;29;20020;-79
2020/12/27 07:03:18;;;;;;;106.95;49.53;;;77.70;2227.20;;;;;;4937170;29;20079;-78
2020/12/27 07:05:45;;;;;;;66.93;36.90;;;102.40;2227.20;;;;;;4921544;29;20114;-79
2020/12/27 07:08:13;;;;;;;107.85;56.65;;;102.40;2227.20;;;;;;4937359;29;20103;-80
2020/12/27 07:10:51;;;;;;;140.73;72.72;;;102.40;2227.20;;;;;;5006908;28;20049;-77
2020/12/27 07:13:17;;;;;;;206.88;104.05;;;77.70;2227.20;;;;;;5016728;28;20041;-76
2020/12/27 07:15:51;;;;;;;198.50;100.35;;;77.70;2227.20;;;;;;5016456;28;20407;-80
2020/12/27 07:18:25;;;;;;;284.98;126.63;;;102.40;2227.20;;;;;;5016375;28;20026;-79
2020/12/27 07:20:56;;;;;;;286.50;133.55;;;77.70;2227.20;;;;;;5016514;28;20403;-80
2020/12/27 07:23:32;;;;;;;194.82;101.45;;;77.70;2227.20;;;;;;5016356;28;20065;-79
2020/12/27 07:26:02;;;;;;;81.28;48.60;;;77.70;2227.20;;;;;;5016685;28;20038;-78
2020/12/27 07:28:30;;;;;;;58.80;37.80;;;102.40;2227.20;;;;;;5016601;28;20042;-78
2020/12/27 07:31:05;;;;;;;47.83;29.70;;;102.40;2227.20;;;;;;5016454;28;20050;-79
2020/12/27 07:33:38;;;;;;;47.75;26.27;;;102.40;2227.20;;;;;;5016714;28;20105;-79
2020/12/27 07:36:09;;;;;;;68.03;38.40;;;102.40;2227.20;;;;;;5016300;28;20423;-77
2020/12/27 07:38:40;;;;;;;;;;;102.40;2227.20;;;;;;5016877;28;20420;-78
2020/12/27 07:41:07;;;;;;;53.85;34.08;;;102.50;2227.20;;;;;;5016449;28;20354;-79
2020/12/27 07:43:32;;;;;;;59.35;40.42;;;102.50;2227.20;;;;;;5016565;28;20382;-78
2020/12/27 07:46:06;;;;;;;42.92;32.55;;;102.40;2227.20;;;;;;5019613;28;20022;-77
2020/12/27 07:48:31;;;;;;;37.03;26.60;;;102.50;2227.20;;;;;;5020189;28;20044;-78
2020/12/27 07:51:10;;;;;;;36.38;24.45;;;102.50;2227.20;;;;;;5002065;28;20037;-78
2020/12/27 07:53:35;;;;;;;37.88;23.67;;;102.50;2227.20;;;;;;5020421;28;20030;-78
2020/12/27 07:56:01;;;;;;;52.67;33.08;;;102.50;2227.20;;;;;;5017324;28;20046;-78
2020/12/27 07:58:28;;;;;;;51.13;31.00;;;102.50;2227.20;;;;;;5019944;28;20376;-79
2020/12/27 08:00:53;;;;;;;64.05;35.63;;;102.50;2227.20;;;;;;5019862;28;20049;-78
2020/12/27 08:03:20;;;;;;;73.05;33.33;;;102.40;2227.20;;;;;;5020194;28;20057;-80
2020/12/27 08:05:46;;;;;;;46.70;26.83;;;102.40;2227.20;;;;;;5019156;28;20034;-79
2020/12/27 08:08:12;;;;;;;46.63;27.92;;;102.40;2227.20;;;;;;5019509;28;20427;-78
2020/12/27 08:10:39;;;;;;;42.00;24.52;;;102.40;2227.20;;;;;;5019860;28;20022;-78
2020/12/27 08:13:06;;;;;;;39.90;25.98;;;102.40;2227.20;;;;;;5002335;28;20029;-78
2020/12/27 08:15:39;;;;;;;44.65;28.63;;;102.50;2227.20;;;;;;5019685;28;20108;-78
2020/12/27 08:18:10;;;;;;;49.42;33.03;;;102.50;2227.20;;;;;;5001241;28;20034;-78
2020/12/27 08:20:47;;;;;;;53.35;33.65;;;102.50;2227.20;;;;;;5020364;28;20053;-77
2020/12/27 08:23:13;;;;;;;66.35;43.97;;;102.50;2227.20;;;;;;5034612;28;20324;-77
2020/12/27 08:25:40;;;;;;;66.43;41.83;;;102.50;2227.20;;;;;;5019870;28;20061;-77
2020/12/27 08:28:11;;;;;;;65.38;39.65;;;102.60;2227.20;;;;;;5006744;28;20393;-77
2020/12/27 08:30:38;;;;;;;61.50;38.60;;;102.60;2227.20;;;;;;5015228;28;20116;-77
2020/12/27 08:33:14;;;;;;;62.88;41.30;;;102.60;2227.20;;;;;;5038680;28;20029;-77
2020/12/27 08:35:45;;;;;;;56.30;38.50;;;102.60;2227.20;;;;;;5034557;28;20029;-77
2020/12/27 08:38:14;;;;;;;57.38;35.47;;;102.70;2227.20;;;;;;5019163;28;20037;-78
2020/12/27 08:40:45;;;;;;;54.80;37.38;;;102.70;2227.20;;;;;;5019251;28;20030;-78
2020/12/27 08:43:46;;;;;;;50.40;32.63;;;102.70;2227.20;;;;;;5019432;28;20025;-76
2020/12/27 08:46:15;;;;;;;61.75;38.38;;;102.70;2227.20;;;;;;5019081;28;20431;-78
2020/12/27 08:49:13;;;;;;;58.97;40.97;;;102.80;2227.20;;;;;;5018907;28;20327;-79
2020/12/27 08:51:42;;;;;;;87.28;50.78;;;102.80;2227.20;;;;;;4919478;29;20051;-78
2020/12/27 08:54:12;;;;;;;102.03;58.17;;;102.80;2227.20;;;;;;4920114;29;20044;-78
2020/12/27 08:56:39;;;;;;;94.32;52.25;;;102.80;2227.20;;;;;;4919873;29;20051;-78
2020/12/27 08:59:05;;;;;;;95.45;52.92;;;102.80;2227.20;;;;;;4935820;29;20032;-78
2020/12/27 09:01:39;;;;;;;75.13;48.95;;;102.80;2227.20;;;;;;4920377;29;20031;-78
2020/12/27 09:04:05;;;;;;;85.65;51.53;;;102.90;2227.20;;;;;;4920323;29;20032;-79
2020/12/27 09:06:31;;;;;;;77.20;44.55;;;102.90;2227.20;;;;;;4919657;29;20020;-79
2020/12/27 09:08:58;;;;;;;87.28;50.17;;;103.00;2227.20;;;;;;4920244;29;20066;-79
2020/12/27 09:11:24;;;;;;;67.82;42.15;;;103.00;2227.20;;;;;;4920292;29;20107;-75
2020/12/27 09:13:50;;;;;;;76.80;48.25;;;103.00;2227.20;;;;;;4920124;29;20110;-76
2020/12/27 09:16:33;;;;;;;68.65;43.85;;;103.00;2227.20;;;;;;4936001;29;20036;-75
2020/12/27 09:19:09;;;;;;;88.32;49.17;;;103.00;2227.20;;;;;;4918380;29;20028;-77
2020/12/27 09:21:41;;;;;;;72.88;36.22;;;103.10;2227.20;;;;;;4933364;29;20032;-76
2020/12/27 09:24:14;;;;;;;60.30;36.47;;;103.10;2227.20;;;;;;4918163;29;20034;-76
2020/12/27 09:26:40;;;;;;;67.05;37.50;;;103.10;2227.20;;;;;;4918603;29;20040;-77
2020/12/27 09:29:19;;;;;;;73.93;41.70;;;103.20;2227.20;;;;;;4986916;28;20068;-78
2020/12/27 09:31:46;;;;;;;66.07;37.28;;;103.20;2227.20;;;;;;5016733;28;20022;-77
2020/12/27 09:34:12;;;;;;;59.65;35.10;;;103.20;2227.20;;;;;;5016787;28;20424;-78
2020/12/27 09:36:39;;;;;;;51.50;30.52;;;103.20;2227.20;;;;;;4998502;28;20423;-78
2020/12/27 09:39:06;;;;;;;61.80;33.53;;;103.20;2227.20;;;;;;5016283;28;20293;-78
2020/12/27 09:41:36;;;;;;;74.22;36.78;;;103.20;2227.20;;;;;;5016257;28;20369;-78
2020/12/27 09:44:02;;;;;;;51.72;30.33;;;103.30;2227.20;;;;;;5016675;28;20042;-77
2020/12/27 09:46:45;;;;;;;57.53;33.38;;;103.30;2227.20;;;;;;5013922;28;20121;-78
2020/12/27 09:49:31;;;;;;;92.10;47.05;;;103.30;2227.20;;;;;;5016178;28;20128;-78
2020/12/27 09:52:11;;;;;;;63.45;34.97;;;103.30;2227.20;;;;;;5015443;28;20029;-78
2020/12/27 09:54:39;;;;;;;61.20;34.60;;;103.30;2227.20;;;;;;5014973;28;20434;-77
2020/12/27 09:57:15;;;;;;;62.05;34.95;;;103.30;2227.20;;;;;;5016225;28;20050;-78
2020/12/27 09:59:42;;;;;;;62.65;36.10;;;128.00;2252.80;;;;;;5014057;28;20038;-79
2020/12/27 10:02:08;;;;;;;47.78;30.20;;;128.00;2252.80;;;;;;5013088;28;20018;-78
2020/12/27 10:04:34;;;;;;;57.05;31.73;;;128.00;2252.80;;;;;;5016330;28;20072;-77
2020/12/27 10:07:00;;;;;;;74.13;43.67;;;128.00;2252.80;;;;;;5016559;28;20025;-76
2020/12/27 10:09:26;;;;;;;58.78;36.35;;;128.00;2252.80;;;;;;4999500;28;20038;-79
2020/12/27 10:11:51;;;;;;;53.08;33.10;;;128.00;2252.80;;;;;;5017391;28;20064;-78
2020/12/27 10:14:18;;;;;;;50.92;30.92;;;128.00;2252.80;;;;;;5017486;28;20030;-79
2020/12/27 10:16:44;;;;;;;51.45;29.35;;;128.00;2252.80;;;;;;5015869;28;20064;-79
2020/12/27 10:19:09;;;;;;;50.53;29.95;;;128.00;2252.80;;;;;;4998893;28;20057;-79
2020/12/27 10:21:35;;;;;;;50.67;27.98;;;128.10;2252.80;;;;;;4999996;28;20419;-77
2020/12/27 10:24:01;;;;;;;52.75;32.85;;;128.10;2252.80;;;;;;5016977;28;20034;-78
2020/12/27 10:26:26;;;;;;;65.47;36.75;;;128.20;2252.80;;;;;;5017356;28;20030;-76
2020/12/27 10:28:52;;;;;;;69.35;37.95;;;128.30;2252.80;;;;;;5017269;28;20030;-78
2020/12/27 10:31:18;;;;;;;49.25;28.23;;;128.30;2252.80;;;;;;5017129;28;20134;-77
2020/12/27 10:33:44;;;;;;;58.75;34.78;;;128.30;2252.80;;;;;;5016471;28;20046;-77
2020/12/27 10:36:10;;;;;;;47.78;28.05;;;128.40;2252.80;;;;;;5016411;28;20037;-77
2020/12/27 10:38:35;;;;;;;42.65;22.58;;;128.40;2252.80;;;;;;5017079;28;20036;-78
2020/12/27 10:41:01;;;;;;;39.75;22.77;;;128.40;2252.80;;;;;;5014722;28;20451;-79
2020/12/27 10:43:28;;;;;;;51.63;29.95;;;128.40;2252.80;;;;;;5016916;28;20096;-76
2020/12/27 10:46:02;;;;;;;65.45;35.92;;;128.40;2252.80;;;;;;4999125;28;20436;-76
2020/12/27 10:48:28;;;;;;;51.40;29.73;;;128.50;2252.80;;;;;;5016758;28;20041;-77
2020/12/27 10:50:54;;;;;;;47.17;29.52;;;128.50;2252.80;;;;;;5014722;28;20026;-79
2020/12/27 10:53:20;;;;;;;54.10;31.35;;;128.50;2252.80;;;;;;5016376;28;20056;-78
2020/12/27 10:55:49;;;;;;;59.20;33.38;;;128.50;2252.80;;;;;;5016521;28;20065;-78
2020/12/27 10:58:16;;;;;;;49.53;29.08;;;128.50;2252.80;;;;;;5016770;28;20026;-78
2020/12/27 11:00:43;;;;;;;53.65;30.75;;;128.50;2252.80;;;;;;5016802;28;20022;-79
2020/12/27 11:03:09;;;;;;;54.75;32.92;;;128.50;2252.80;;;;;;5016464;28;20152;-78
2020/12/27 11:05:35;;;;;;;42.33;25.92;;;128.60;2252.80;;;;;;5015992;28;20110;-79
2020/12/27 11:08:00;;;;;;;43.28;26.63;;;128.60;2252.80;;;;;;5016890;28;20033;-78
2020/12/27 11:10:26;;;;;;;52.30;31.65;;;128.60;2252.80;;;;;;5016462;28;20458;-79
2020/12/27 11:12:52;;;;;;;59.65;36.65;;;128.60;2252.80;;;;;;5016696;28;20065;-79
2020/12/27 11:15:18;;;;;;;62.90;39.38;;;128.60;2252.80;;;;;;5015401;28;20031;-78
2020/12/27 11:17:43;;;;;;;48.17;29.50;;;128.60;2252.80;;;;;;5016301;28;20021;-79
2020/12/27 11:20:13;;;;;;;38.38;21.80;;;128.70;2252.80;;;;;;4997553;28;20041;-78
2020/12/27 11:22:42;;;;;;;39.08;23.08;;;128.70;2252.80;;;;;;4999596;28;20069;-78
2020/12/27 11:25:09;;;;;;;31.23;21.10;;;128.80;2252.80;;;;;;4996982;28;20031;-79
2020/12/27 11:27:36;;;;;;;45.55;28.35;;;128.80;2252.80;;;;;;4996558;28;20122;-78
2020/12/27 11:30:04;;;;;;;84.72;43.92;;;128.80;2252.80;;;;;;4996759;28;20062;-79
2020/12/27 11:32:30;;;;;;;68.93;37.55;;;128.80;2252.80;;;;;;4996974;28;20029;-79
2020/12/27 11:34:56;;;;;;;39.33;24.58;;;128.80;2252.80;;;;;;4995997;28;20309;-85
2020/12/27 11:37:22;;;;;;;33.95;22.60;;;128.80;2252.80;;;;;;4979144;28;20031;-78
2020/12/27 11:39:48;;;;;;;35.70;23.65;;;128.80;2252.80;;;;;;4996559;28;20033;-79
2020/12/27 11:42:13;;;;;;;32.00;20.65;;;128.80;2252.80;;;;;;4996817;28;20042;-78
2020/12/27 11:44:39;;;;;;;44.88;20.85;;;128.80;2252.80;;;;;;4996873;28;20022;-78
2020/12/27 11:47:08;;;;;;;31.35;20.52;;;128.90;2252.80;;;;;;4996710;28;20141;-78
2020/12/27 11:49:35;;;;;;;31.15;19.58;;;128.90;2252.80;;;;;;4977984;28;20058;-76
2020/12/27 11:52:00;;;;;;;31.55;18.92;;;128.90;2252.80;;;;;;4980643;28;20344;-77
2020/12/27 11:54:26;;;;;;;32.05;20.67;;;128.80;2252.80;;;;;;4997696;28;20038;-78
2020/12/27 11:56:55;;;;;;;33.55;21.20;;;128.80;2252.80;;;;;;5014691;28;20046;-79
2020/12/27 11:59:21;;;;;;;33.33;23.58;;;128.80;2252.80;;;;;;5014721;28;20030;-76
2020/12/27 12:01:47;;;;;;;38.35;25.20;;;128.80;2252.80;;;;;;5014630;28;20077;-76
2020/12/27 12:04:13;;;;;;;38.20;22.83;;;128.80;2252.80;;;;;;5011649;28;20026;-77
2020/12/27 12:06:39;;;;;;;35.13;22.00;;;128.80;2252.80;;;;;;5014660;28;20022;-75
2020/12/27 12:09:04;;;;;;;33.80;22.48;;;128.80;2252.80;;;;;;5018026;28;20109;-75
2020/12/27 12:11:37;;;;;;;42.80;23.17;;;128.80;2252.80;;;;;;5014583;28;20482;-76